createdAt,value
2024-02-05T00:00:42.201Z,2.35
2024-02-05T00:03:10.550Z,3.00
2024-02-05T00:05:38.865Z,1.65
2024-02-05T00:08:09.257Z,1.70
2024-02-05T00:10:37.598Z,2.47
2024-02-05T00:13:06.531Z,2.25
2024-02-05T00:18:02.721Z,2.15
2024-02-05T00:20:31.073Z,2.25
2024-02-05T00:22:59.251Z,2.10
2024-02-05T00:25:27.501Z,2.60
2024-02-05T00:27:55.806Z,1.77
2024-02-05T00:30:24.092Z,1.50
2024-02-05T00:32:53.773Z,2.75
2024-02-05T00:35:22.050Z,2.45
2024-02-05T00:37:50.644Z,2.20
2024-02-05T00:40:18.977Z,2.22
2024-02-05T00:42:47.291Z,1.65
2024-02-05T00:45:15.658Z,2.38
2024-02-05T00:47:43.993Z,2.50
2024-02-05T00:50:12.409Z,1.85
2024-02-05T00:52:40.740Z,2.55
2024-02-05T00:55:09.265Z,1.92
2024-02-05T00:57:38.097Z,2.28
2024-02-05T01:00:10.546Z,2.28
2024-02-05T01:02:38.877Z,2.55
2024-02-05T01:05:08.317Z,2.10
2024-02-05T01:07:37.940Z,2.53
2024-02-05T01:12:34.883Z,2.10
2024-02-05T01:15:03.127Z,2.00
2024-02-05T01:17:31.385Z,2.67
2024-02-05T01:20:03.747Z,2.70
2024-02-05T01:22:33.589Z,2.90
2024-02-05T01:25:01.789Z,2.42
2024-02-05T01:27:29.986Z,2.60
2024-02-05T01:29:58.335Z,2.70
2024-02-05T01:32:26.586Z,1.80
2024-02-05T01:34:54.956Z,2.30
2024-02-05T01:37:24.604Z,2.65
2024-02-05T01:39:52.825Z,2.28
2024-02-05T01:42:21.069Z,2.03
2024-02-05T01:44:49.603Z,2.60
2024-02-05T01:47:17.845Z,2.72
2024-02-05T01:49:49.058Z,1.92
2024-02-05T01:52:21.743Z,2.10
2024-02-05T01:54:50.997Z,2.53
2024-02-05T01:57:19.427Z,2.53
2024-02-05T01:59:47.867Z,2.50
2024-02-05T02:02:16.205Z,1.80
2024-02-05T02:04:44.505Z,2.90
2024-02-05T02:07:13.322Z,2.25
2024-02-05T02:09:41.655Z,2.78
2024-02-05T02:12:10.043Z,1.85
2024-02-05T02:14:38.849Z,3.58
2024-02-05T02:17:07.508Z,1.90
2024-02-05T02:19:45.079Z,2.50
2024-02-05T02:22:39.661Z,2.33
2024-02-05T02:25:08.667Z,3.00
2024-02-05T02:27:37.035Z,2.70
2024-02-05T02:30:06.569Z,2.13
2024-02-05T02:33:09.444Z,2.17
2024-02-05T02:35:45.816Z,3.53
2024-02-05T02:38:44.781Z,2.03
2024-02-05T02:41:26.416Z,2.42
2024-02-05T02:44:03.017Z,3.10
2024-02-05T02:46:32.557Z,2.25
2024-02-05T02:49:00.923Z,1.83
2024-02-05T02:51:29.528Z,2.63
2024-02-05T02:53:57.895Z,2.72
2024-02-05T02:56:26.101Z,2.88
2024-02-05T02:58:54.276Z,2.65
2024-02-05T03:01:22.632Z,2.50
2024-02-05T03:03:51.242Z,2.75
2024-02-05T03:06:19.583Z,3.03
2024-02-05T03:08:47.759Z,2.15
2024-02-05T03:11:15.956Z,1.90
2024-02-05T03:13:44.151Z,2.83
2024-02-05T03:16:12.415Z,2.83
2024-02-05T03:18:40.756Z,2.53
2024-02-05T03:21:09.086Z,2.63
2024-02-05T03:23:38.099Z,2.90
2024-02-05T03:26:06.390Z,2.00
2024-02-05T03:28:34.574Z,2.10
2024-02-05T03:31:05.624Z,2.03
2024-02-05T03:33:33.921Z,2.50
2024-02-05T03:36:02.266Z,2.38
2024-02-05T03:38:30.473Z,2.10
2024-02-05T03:40:58.686Z,2.88
2024-02-05T03:43:26.989Z,2.10
2024-02-05T03:45:55.278Z,2.53
2024-02-05T03:48:23.572Z,2.38
2024-02-05T03:50:51.888Z,2.78
2024-02-05T03:53:20.306Z,3.00
2024-02-05T03:55:48.794Z,2.53
2024-02-05T03:58:17.166Z,3.38
2024-02-05T04:00:45.608Z,2.33
2024-02-05T04:03:14.043Z,2.80
2024-02-05T04:05:42.269Z,3.03
2024-02-05T04:08:10.492Z,2.22
2024-02-05T04:10:38.746Z,2.42
2024-02-05T04:13:07.012Z,2.30
2024-02-05T04:15:36.063Z,2.63
2024-02-05T04:20:32.419Z,2.45
2024-02-05T04:23:02.917Z,2.80
2024-02-05T04:25:32.834Z,2.67
2024-02-05T04:28:03.638Z,2.78
2024-02-05T04:30:34.315Z,1.88
2024-02-05T04:33:04.182Z,2.70
2024-02-05T04:35:33.464Z,3.83
2024-02-05T04:38:01.703Z,3.10
2024-02-05T04:40:30.062Z,2.85
2024-02-05T04:42:58.452Z,2.20
2024-02-05T04:45:26.989Z,2.25
2024-02-05T04:47:55.596Z,2.20
2024-02-05T04:50:23.911Z,2.83
2024-02-05T04:52:52.190Z,2.55
2024-02-05T04:55:20.569Z,2.05
2024-02-05T04:57:50.982Z,2.15
2024-02-05T05:00:23.235Z,2.20
2024-02-05T05:02:51.561Z,2.67
2024-02-05T05:05:19.865Z,2.45
2024-02-05T05:07:48.366Z,1.95
2024-02-05T05:10:16.780Z,2.25
2024-02-05T05:12:44.997Z,2.33
2024-02-05T05:15:17.123Z,2.70
2024-02-05T05:17:48.305Z,2.47
2024-02-05T05:20:16.651Z,2.28
2024-02-05T05:22:44.929Z,2.72
2024-02-05T05:25:13.228Z,2.75
2024-02-05T05:27:41.585Z,2.85
2024-02-05T05:30:10.628Z,2.75
2024-02-05T05:32:38.878Z,2.78
2024-02-05T05:35:10.657Z,2.80
2024-02-05T05:37:42.704Z,3.05
2024-02-05T05:40:11.739Z,2.05
2024-02-05T05:42:40.245Z,3.05
2024-02-05T05:45:08.928Z,3.05
2024-02-05T05:47:37.486Z,2.60
2024-02-05T05:50:06.400Z,2.83
2024-02-05T05:55:02.994Z,2.15
2024-02-05T05:57:31.251Z,3.13
2024-02-05T06:00:00.548Z,3.08
2024-02-05T06:02:29.820Z,3.25
2024-02-05T06:04:58.010Z,3.08
2024-02-05T06:07:26.272Z,2.78
2024-02-05T06:09:54.556Z,3.05
2024-02-05T06:12:23.552Z,2.33
2024-02-05T06:14:51.733Z,3.53
2024-02-05T06:17:20.192Z,2.78
2024-02-05T06:19:48.615Z,3.05
2024-02-05T06:22:16.969Z,2.65
2024-02-05T06:24:45.299Z,2.38
2024-02-05T06:27:13.536Z,2.08
2024-02-05T06:29:41.740Z,2.38
2024-02-05T06:32:10.044Z,3.78
2024-02-05T06:34:38.512Z,2.90
2024-02-05T06:37:06.902Z,2.58
2024-02-05T06:39:35.221Z,2.42
2024-02-05T06:42:03.477Z,1.90
2024-02-05T06:44:31.711Z,3.15
2024-02-05T06:46:59.962Z,2.20
2024-02-05T06:49:28.454Z,2.60
2024-02-05T06:51:56.802Z,2.40
2024-02-05T06:54:25.238Z,2.05
2024-02-05T06:56:53.487Z,3.08
2024-02-05T06:59:21.707Z,2.45
2024-02-05T07:01:50.054Z,2.45
2024-02-05T07:04:18.402Z,2.13
2024-02-05T07:06:46.943Z,2.70
2024-02-05T07:09:15.408Z,2.30
2024-02-05T07:11:44.612Z,2.72
2024-02-05T07:14:12.854Z,2.63
2024-02-05T07:16:41.140Z,2.60
2024-02-05T07:19:09.662Z,2.75
2024-02-05T07:21:38.026Z,2.40
2024-02-05T07:24:06.406Z,3.00
2024-02-05T07:26:37.538Z,2.80
2024-02-05T07:29:05.763Z,2.35
2024-02-05T07:31:34.199Z,2.47
2024-02-05T07:34:02.537Z,2.65
2024-02-05T07:36:32.727Z,3.45
2024-02-05T07:39:01.918Z,2.78
2024-02-05T07:41:30.776Z,2.25
2024-02-05T07:43:59.043Z,3.10
2024-02-05T07:46:27.334Z,3.05
2024-02-05T07:48:55.723Z,2.85
2024-02-05T07:51:24.078Z,2.40
2024-02-05T07:53:52.394Z,2.78
2024-02-05T07:56:20.642Z,2.60
2024-02-05T07:58:49.001Z,2.83
2024-02-05T08:01:17.250Z,2.22
2024-02-05T08:03:45.699Z,3.55
2024-02-05T08:06:20.723Z,2.47
2024-02-05T08:08:49.186Z,2.85
2024-02-05T08:11:17.684Z,1.95
2024-02-05T08:13:45.985Z,3.05
2024-02-05T08:16:14.341Z,2.30
2024-02-05T08:18:42.824Z,3.55
2024-02-05T08:21:11.103Z,3.25
2024-02-05T08:23:39.715Z,3.30
2024-02-05T08:26:10.523Z,2.97
2024-02-05T08:28:42.432Z,2.60
2024-02-05T08:31:10.812Z,3.00
2024-02-05T08:33:39.097Z,2.97
2024-02-05T08:36:07.663Z,3.20
2024-02-05T08:38:35.879Z,2.33
2024-02-05T08:41:04.038Z,3.30
2024-02-05T08:43:32.456Z,2.45
2024-02-05T08:46:09.765Z,2.83
2024-02-05T08:48:39.063Z,2.88
2024-02-05T08:51:07.577Z,3.33
2024-02-05T08:53:35.807Z,3.35
2024-02-05T08:56:04.040Z,2.92
2024-02-05T08:59:14.123Z,3.35
2024-02-05T09:04:12.569Z,3.25
2024-02-05T09:06:42.511Z,3.40
2024-02-05T09:09:11.310Z,2.90
2024-02-05T09:11:45.879Z,3.17
2024-02-05T09:14:21.592Z,2.42
2024-02-05T09:16:50.000Z,2.55
2024-02-05T09:19:20.352Z,2.70
2024-02-05T09:21:49.868Z,2.45
2024-02-05T09:24:19.171Z,2.42
2024-02-05T09:26:47.388Z,3.08
2024-02-05T09:29:15.601Z,2.45
2024-02-05T09:31:44.134Z,2.17
2024-02-05T09:34:15.631Z,2.25
2024-02-05T09:36:44.727Z,2.50
2024-02-05T09:39:13.297Z,3.53
2024-02-05T09:41:43.405Z,2.78
2024-02-05T09:44:12.890Z,2.30
2024-02-05T09:46:45.068Z,2.22
2024-02-05T09:49:27.929Z,2.95
2024-02-05T09:51:57.630Z,3.75
2024-02-05T09:54:26.047Z,2.90
2024-02-05T09:56:54.600Z,2.53
2024-02-05T09:59:23.115Z,2.85
2024-02-05T10:02:01.046Z,3.15
2024-02-05T10:04:36.510Z,2.50
2024-02-05T10:07:07.564Z,2.20
2024-02-05T10:09:39.464Z,2.35
2024-02-05T10:12:13.519Z,1.77
2024-02-05T10:14:45.851Z,2.63
2024-02-05T10:17:40.036Z,1.92
2024-02-05T10:20:14.576Z,2.15
2024-02-05T10:22:49.461Z,2.25
2024-02-05T10:25:19.211Z,2.45
2024-02-05T10:27:47.581Z,2.03
2024-02-05T10:30:20.055Z,3.10
2024-02-05T10:32:49.993Z,2.55
2024-02-05T10:35:21.036Z,2.83
2024-02-05T10:37:54.444Z,2.90
2024-02-05T10:40:23.637Z,3.35
2024-02-05T10:42:55.584Z,2.97
2024-02-05T10:45:47.687Z,2.22
2024-02-05T10:48:18.831Z,3.40
2024-02-05T10:50:47.335Z,3.00
2024-02-05T10:53:19.915Z,3.17
2024-02-05T10:55:50.290Z,3.42
2024-02-05T10:58:23.437Z,3.00
2024-02-05T11:00:53.302Z,3.40
2024-02-05T11:03:26.675Z,3.13
2024-02-05T11:06:00.185Z,3.10
2024-02-05T11:08:36.109Z,3.42
2024-02-05T11:11:11.781Z,2.95
2024-02-05T11:13:59.044Z,3.13
2024-02-05T11:16:27.871Z,4.22
2024-02-05T11:19:12.943Z,3.42
2024-02-05T11:21:47.823Z,3.47
2024-02-05T11:26:48.874Z,4.50
2024-02-05T11:29:33.217Z,3.45
2024-02-05T11:32:02.844Z,3.65
2024-02-05T11:35:01.737Z,3.45
2024-02-05T11:37:33.230Z,2.75
2024-02-05T11:40:02.758Z,2.70
2024-02-05T11:42:32.900Z,3.10
2024-02-05T11:45:02.232Z,4.25
2024-02-05T11:47:30.819Z,2.47
2024-02-05T11:50:00.308Z,3.38
2024-02-05T11:52:29.135Z,3.78
2024-02-05T11:54:57.803Z,2.88
2024-02-05T11:57:27.113Z,2.85
2024-02-05T11:59:55.301Z,3.28
2024-02-05T12:02:24.680Z,3.75
2024-02-05T12:04:53.503Z,2.38
2024-02-05T12:07:24.279Z,3.20
2024-02-05T12:10:04.129Z,2.75
2024-02-05T12:12:32.592Z,3.05
2024-02-05T12:15:00.789Z,3.25
2024-02-05T12:17:31.057Z,2.17
2024-02-05T12:20:01.308Z,2.70
2024-02-05T12:22:29.927Z,2.30
2024-02-05T12:25:00.719Z,2.70
2024-02-05T12:27:29.836Z,2.50
2024-02-05T12:30:09.336Z,2.80
2024-02-05T16:23:23.806Z,2.03
2024-02-05T16:25:52.200Z,1.45
2024-02-05T16:28:20.494Z,1.70
2024-02-05T16:30:48.806Z,1.10
2024-02-05T16:33:17.114Z,1.60
2024-02-05T16:35:46.672Z,0.90
2024-02-05T16:38:14.880Z,0.90
2024-02-05T16:40:43.128Z,0.65
2024-02-05T16:43:14.350Z,1.08
2024-02-05T16:45:42.880Z,0.93
2024-02-05T16:48:11.743Z,1.23
2024-02-05T16:50:40.010Z,0.88
2024-02-05T16:53:12.080Z,1.02
2024-02-05T16:55:40.385Z,0.65
2024-02-05T16:58:09.036Z,1.10
2024-02-05T17:00:37.382Z,0.77
2024-02-05T17:03:15.549Z,0.95
2024-02-05T17:05:44.052Z,0.93
2024-02-05T17:08:13.345Z,0.88
2024-02-05T17:10:41.706Z,0.75
2024-02-05T17:13:10.048Z,0.90
2024-02-05T17:15:41.505Z,1.27
2024-02-05T17:18:10.297Z,0.73
2024-02-05T17:20:38.609Z,1.40
2024-02-05T17:23:06.839Z,1.10
2024-02-05T17:25:35.673Z,1.30
2024-02-05T17:28:04.020Z,1.00
2024-02-05T17:30:32.612Z,0.70
2024-02-05T17:33:01.059Z,1.30
2024-02-05T17:35:29.740Z,0.60
2024-02-05T17:37:57.994Z,1.00
2024-02-05T17:40:26.191Z,0.90
2024-02-05T17:42:54.595Z,0.82
2024-02-05T17:45:22.886Z,1.13
2024-02-05T17:47:51.141Z,1.00
2024-02-05T17:50:19.519Z,0.60
2024-02-05T17:52:50.155Z,0.60
2024-02-05T17:55:21.096Z,1.13
2024-02-05T17:57:49.937Z,0.93
2024-02-05T18:00:18.354Z,0.88
2024-02-05T18:02:46.739Z,0.82
2024-02-05T18:05:15.383Z,1.20
2024-02-05T18:07:43.843Z,0.73
2024-02-05T18:10:13.015Z,0.80
2024-02-05T18:12:41.236Z,0.60
2024-02-05T18:15:10.239Z,0.40
2024-02-05T18:20:07.030Z,0.40
2024-02-05T18:22:36.026Z,0.65
2024-02-05T18:27:32.835Z,0.57
2024-02-05T18:30:01.163Z,0.70
2024-02-05T18:32:29.402Z,0.45
2024-02-05T18:34:58.304Z,0.60
2024-02-05T18:37:27.873Z,0.50
2024-02-05T18:39:56.173Z,0.60
2024-02-05T18:42:24.410Z,0.55
2024-02-05T18:44:52.622Z,0.82
2024-02-05T18:47:22.324Z,1.02
2024-02-05T18:49:50.925Z,1.00
2024-02-05T18:52:19.352Z,0.85
2024-02-05T18:54:47.679Z,1.25
2024-02-05T18:57:20.094Z,1.40
2024-02-05T18:59:48.316Z,0.90
2024-02-05T19:02:16.612Z,1.00
2024-02-05T19:04:44.998Z,1.10
2024-02-05T19:07:13.280Z,1.00
2024-02-05T19:09:41.552Z,1.15
2024-02-05T19:12:09.861Z,1.10
2024-02-05T19:14:38.169Z,1.23
2024-02-05T19:17:06.741Z,0.95
2024-02-05T19:19:38.049Z,1.10
2024-02-05T19:22:07.526Z,1.58
2024-02-05T19:24:35.721Z,0.98
2024-02-05T19:27:05.830Z,1.00
2024-02-05T19:29:34.316Z,0.98
2024-02-05T19:32:03.250Z,1.52
2024-02-05T19:37:00.603Z,1.10
2024-02-05T19:41:56.768Z,1.08
2024-02-05T19:44:25.350Z,1.08
2024-02-05T19:46:53.712Z,1.02
2024-02-05T19:49:21.990Z,1.25
2024-02-05T19:51:50.310Z,0.90
2024-02-05T19:54:18.522Z,1.20
2024-02-05T19:56:47.571Z,1.50
2024-02-05T20:01:46.696Z,1.15
2024-02-05T20:04:15.742Z,1.23
2024-02-05T20:09:12.327Z,0.90
2024-02-05T20:11:40.519Z,1.23
2024-02-05T20:14:10.328Z,1.50
2024-02-05T20:16:38.660Z,1.30
2024-02-05T20:19:09.081Z,0.98
2024-02-05T20:21:37.366Z,1.05
2024-02-05T20:24:06.213Z,1.30
2024-02-05T20:26:35.333Z,1.45
2024-02-05T20:29:03.633Z,1.00
2024-02-05T20:31:34.605Z,0.88
2024-02-05T20:34:03.295Z,1.10
2024-02-05T20:36:31.666Z,1.20
2024-02-05T20:38:59.980Z,0.90
2024-02-05T20:41:28.279Z,1.10
2024-02-05T20:43:56.796Z,1.33
2024-02-05T20:46:25.068Z,1.15
2024-02-05T20:48:53.418Z,1.20
2024-02-05T20:51:21.702Z,1.17
2024-02-05T20:53:49.917Z,1.35
2024-02-05T20:56:20.675Z,0.98
2024-02-05T20:58:48.951Z,0.82
2024-02-05T21:01:17.305Z,1.08
2024-02-05T21:03:45.763Z,1.45
2024-02-05T21:06:14.063Z,1.17
2024-02-05T21:08:42.418Z,0.50
2024-02-05T21:11:10.622Z,1.42
2024-02-05T21:13:38.902Z,1.20
2024-02-05T21:16:08.619Z,1.77
2024-02-05T21:18:36.905Z,1.02
2024-02-05T21:21:06.221Z,1.08
2024-02-05T21:23:34.435Z,0.73
2024-02-05T21:26:02.640Z,1.02
2024-02-05T21:28:31.132Z,1.00
2024-02-05T21:30:59.927Z,1.10
2024-02-05T21:33:28.276Z,1.25
2024-02-05T21:35:56.497Z,1.00
2024-02-05T21:38:24.974Z,1.30
2024-02-05T21:40:53.381Z,1.15
2024-02-05T21:43:21.653Z,1.13
2024-02-05T21:45:49.954Z,1.30
2024-02-05T21:48:18.235Z,0.90
2024-02-05T21:50:46.558Z,1.75
2024-02-05T21:53:14.801Z,1.60
2024-02-05T21:55:43.119Z,1.33
2024-02-05T21:58:11.402Z,1.65
2024-02-05T22:00:39.722Z,1.48
2024-02-05T22:03:07.919Z,1.40
2024-02-05T22:05:36.213Z,1.52
2024-02-05T22:08:04.605Z,1.17
2024-02-05T22:10:32.897Z,1.75
2024-02-05T22:13:01.184Z,1.08
2024-02-05T22:15:30.903Z,1.75
2024-02-05T22:17:59.278Z,1.33
2024-02-05T22:20:27.604Z,1.40
2024-02-05T22:22:55.810Z,1.20
2024-02-05T22:25:24.074Z,1.30
2024-02-05T22:27:52.357Z,1.23
2024-02-05T22:30:20.594Z,1.52
2024-02-05T22:32:48.841Z,1.27
2024-02-05T22:35:17.199Z,1.35
2024-02-05T22:37:45.470Z,1.88
2024-02-05T22:40:13.762Z,1.02
2024-02-05T22:42:42.024Z,1.23
2024-02-05T22:45:10.415Z,1.92
2024-02-05T22:47:38.847Z,2.15
2024-02-05T22:50:07.749Z,1.20
2024-02-05T22:52:36.829Z,1.60
2024-02-05T22:57:34.731Z,1.83
2024-02-05T23:00:03.479Z,1.40
2024-02-05T23:02:32.030Z,1.30
2024-02-05T23:05:00.437Z,1.40
2024-02-05T23:07:28.707Z,1.92
2024-02-05T23:09:57.956Z,1.65
2024-02-05T23:12:26.316Z,1.42
2024-02-05T23:14:54.568Z,1.15
2024-02-05T23:17:22.811Z,1.40
2024-02-05T23:19:51.015Z,1.77
2024-02-05T23:22:19.326Z,1.05
2024-02-05T23:24:47.552Z,1.40
2024-02-05T23:27:15.804Z,1.85
2024-02-05T23:29:44.098Z,1.90
2024-02-05T23:32:13.736Z,1.75
2024-02-05T23:34:44.261Z,1.77
2024-02-05T23:37:12.549Z,2.08
2024-02-05T23:39:40.761Z,2.45
2024-02-05T23:42:09.366Z,2.20
2024-02-05T23:44:37.664Z,1.98
2024-02-05T23:47:05.923Z,1.70
2024-02-05T23:49:37.596Z,1.15
2024-02-05T23:52:06.004Z,1.77
2024-02-05T23:54:34.690Z,2.03
2024-02-05T23:57:02.916Z,2.20
2024-02-05T23:59:31.370Z,2.03
